createdAt,value
2022-08-01T00:01:44.198Z,2.63
2022-08-01T00:04:13.153Z,2.70
2022-08-01T00:07:00.406Z,2.70
2022-08-01T00:09:28.705Z,2.37
2022-08-01T00:11:59.888Z,2.70
2022-08-01T00:14:32.218Z,2.60
2022-08-01T00:17:07.298Z,2.77
2022-08-01T00:19:36.025Z,2.93
2022-08-01T00:22:08.056Z,2.97
2022-08-01T00:24:36.713Z,2.90
2022-08-01T00:27:06.414Z,3.00
2022-08-01T00:30:11.915Z,2.87
2022-08-01T00:33:02.818Z,3.43
2022-08-01T00:35:31.447Z,3.37
2022-08-01T00:38:00.086Z,3.30
2022-08-01T00:40:28.530Z,3.00
2022-08-01T00:43:16.743Z,2.80
2022-08-01T00:46:02.706Z,2.90
2022-08-01T00:54:21.761Z,2.70
2022-08-01T00:56:50.093Z,3.27
2022-08-01T00:59:20.525Z,3.00
2022-08-01T01:01:49.981Z,3.20
2022-08-01T01:07:49.560Z,2.70
2022-08-01T01:10:43.877Z,2.93
2022-08-01T01:13:20.143Z,2.90
2022-08-01T01:15:57.217Z,2.90
2022-08-01T01:18:27.658Z,3.00
2022-08-01T01:21:24.955Z,3.00
2022-08-01T01:36:21.705Z,3.17
2022-08-01T01:38:52.591Z,2.93
2022-08-01T01:41:22.291Z,2.93
2022-08-01T01:50:40.669Z,3.33
2022-08-01T01:53:15.009Z,3.50
2022-08-01T02:02:21.079Z,2.60
2022-08-01T02:11:22.653Z,2.10
2022-08-01T02:13:55.873Z,2.10
2022-08-01T02:16:28.216Z,2.00
2022-08-01T02:18:56.966Z,1.80
2022-08-01T02:21:30.362Z,2.10
2022-08-01T02:30:07.442Z,1.90
2022-08-01T02:48:00.891Z,1.60
2022-08-01T02:50:31.809Z,1.70
2022-08-01T03:02:42.161Z,1.80
2022-08-01T03:05:29.718Z,1.80
2022-08-01T03:08:02.758Z,1.70
2022-08-01T03:13:41.686Z,1.87
2022-08-01T03:16:29.155Z,1.50
2022-08-01T03:22:21.609Z,1.60
2022-08-01T03:25:10.842Z,1.30
2022-08-01T03:27:57.603Z,1.20
2022-08-01T03:30:29.640Z,1.17
2022-08-01T03:39:15.456Z,1.40
2022-08-01T03:41:56.775Z,1.10
2022-08-01T03:44:28.448Z,0.70
2022-08-01T03:47:02.926Z,0.90
2022-08-01T03:52:20.841Z,0.73
2022-08-01T03:57:59.048Z,0.60
2022-08-01T04:00:30.321Z,0.60
2022-08-01T04:03:00.722Z,0.60
2022-08-01T04:05:29.072Z,0.50
2022-08-01T04:07:57.549Z,0.60
2022-08-01T04:10:26.441Z,0.50
2022-08-01T04:12:54.766Z,0.57
2022-08-01T04:15:23.754Z,0.70
2022-08-01T04:17:52.011Z,0.70
2022-08-01T04:20:21.853Z,0.80
2022-08-01T04:23:10.263Z,0.90
2022-08-01T04:28:47.017Z,0.70
2022-08-01T04:31:18.282Z,0.77
2022-08-01T04:33:51.746Z,0.80
2022-08-01T04:36:26.766Z,0.63
2022-08-01T04:39:19.328Z,0.63
2022-08-01T04:42:06.885Z,0.70
2022-08-01T04:44:36.128Z,0.80
2022-08-01T04:47:08.698Z,0.80
2022-08-01T04:49:48.652Z,1.00
2022-08-01T04:55:08.152Z,0.90
2022-08-01T04:57:38.804Z,0.70
2022-08-01T05:00:08.394Z,0.90
2022-08-01T05:02:37.027Z,1.03
2022-08-01T05:05:24.515Z,0.80
2022-08-01T05:11:16.600Z,0.80
2022-08-01T05:13:52.374Z,0.60
2022-08-01T05:16:21.282Z,0.60
2022-08-01T05:18:49.656Z,0.57
2022-08-01T05:21:17.978Z,0.70
2022-08-01T05:23:50.345Z,0.60
2022-08-01T05:26:56.078Z,0.70
2022-08-01T05:30:00.632Z,0.97
2022-08-01T05:32:46.742Z,0.80
2022-08-01T05:35:16.281Z,0.70
2022-08-01T05:38:02.584Z,0.60
2022-08-01T05:40:51.213Z,0.80
2022-08-01T05:43:38.373Z,0.70
2022-08-01T05:46:06.833Z,0.63
2022-08-01T05:48:35.114Z,1.00
2022-08-01T05:51:22.473Z,0.80
2022-08-01T05:53:50.870Z,1.00
2022-08-01T05:56:20.903Z,0.70
2022-08-01T06:01:54.532Z,1.00
2022-08-01T06:04:42.082Z,0.90
2022-08-01T06:10:33.965Z,1.00
2022-08-01T06:13:04.165Z,1.10
2022-08-01T06:15:32.649Z,0.80
2022-08-01T06:21:06.450Z,0.73
2022-08-01T06:23:34.756Z,0.80
2022-08-01T06:26:03.238Z,0.90
2022-08-01T06:28:33.005Z,0.80
2022-08-01T06:31:01.565Z,0.80
2022-08-01T06:33:30.104Z,0.93
2022-08-01T06:36:17.362Z,0.80
2022-08-01T06:39:05.932Z,0.97
2022-08-01T06:41:34.194Z,0.87
2022-08-01T06:44:05.321Z,0.80
2022-08-01T06:46:33.778Z,1.10
2022-08-01T06:49:03.383Z,1.00
2022-08-01T06:51:31.790Z,0.70
2022-08-01T06:54:00.189Z,1.07
2022-08-01T06:56:28.595Z,1.07
2022-08-01T06:59:01.685Z,0.97
2022-08-01T07:01:34.293Z,0.80
2022-08-01T07:04:03.666Z,1.20
2022-08-01T07:06:31.943Z,0.80
2022-08-01T07:09:07.403Z,1.63
2022-08-01T07:11:39.216Z,1.40
2022-08-01T07:14:07.522Z,1.17
2022-08-01T07:16:40.016Z,0.97
2022-08-01T07:19:08.910Z,1.20
2022-08-01T07:21:39.709Z,1.07
2022-08-01T07:24:13.839Z,1.37
2022-08-01T07:26:53.472Z,0.90
2022-08-01T07:29:24.463Z,0.80
2022-08-01T07:31:54.991Z,0.97
2022-08-01T07:34:23.772Z,0.80
2022-08-01T07:36:52.221Z,0.90
2022-08-01T07:39:20.696Z,0.80
2022-08-01T07:42:06.159Z,0.90
2022-08-01T07:44:36.763Z,0.90
2022-08-01T07:47:07.526Z,0.93
2022-08-01T07:49:39.910Z,1.10
2022-08-01T07:52:09.584Z,0.90
2022-08-01T07:54:37.929Z,1.00
2022-08-01T07:57:06.877Z,1.20
2022-08-01T07:59:35.735Z,1.17
2022-08-01T08:02:04.846Z,1.20
2022-08-01T08:04:34.908Z,1.30
2022-08-01T08:07:03.977Z,1.20
2022-08-01T08:09:37.214Z,1.40
2022-08-01T08:12:08.215Z,1.10
2022-08-01T08:14:36.905Z,1.20
2022-08-01T08:17:05.365Z,1.50
2022-08-01T08:19:39.006Z,1.53
2022-08-01T08:22:08.789Z,1.40
2022-08-01T08:24:45.460Z,1.50
2022-08-01T08:27:15.241Z,0.93
2022-08-01T08:29:43.866Z,1.47
2022-08-01T08:32:13.603Z,1.10
2022-08-01T08:34:43.624Z,1.10
2022-08-01T08:37:12.254Z,0.90
2022-08-01T08:39:41.881Z,1.00
2022-08-01T08:42:12.079Z,1.10
2022-08-01T08:44:43.594Z,1.40
2022-08-01T08:47:19.724Z,1.27
2022-08-01T08:49:52.327Z,1.20
2022-08-01T08:52:21.968Z,1.03
2022-08-01T08:54:52.159Z,1.60
2022-08-01T08:57:22.446Z,1.23
2022-08-01T08:59:52.871Z,1.40
2022-08-01T09:02:21.255Z,1.60
2022-08-01T09:04:52.064Z,1.70
2022-08-01T09:07:20.419Z,1.73
2022-08-01T09:09:50.206Z,1.90
2022-08-01T09:12:21.303Z,1.60
2022-08-01T09:14:51.147Z,1.40
2022-08-01T09:17:19.609Z,1.50
2022-08-01T09:19:49.566Z,1.50
2022-08-01T09:22:22.365Z,1.40
2022-08-01T09:25:02.166Z,1.70
2022-08-01T09:27:31.548Z,1.67
2022-08-01T09:30:11.360Z,1.60
2022-08-01T09:32:55.880Z,1.80
2022-08-01T09:35:31.109Z,1.87
2022-08-01T09:38:19.976Z,1.60
2022-08-01T09:40:50.885Z,1.80
2022-08-01T09:43:19.486Z,1.67
2022-08-01T09:45:49.170Z,2.03
2022-08-01T09:48:19.196Z,1.90
2022-08-01T09:50:48.745Z,2.00
2022-08-01T09:53:29.938Z,1.80
2022-08-01T09:56:11.744Z,1.90
2022-08-01T09:58:59.952Z,1.80
2022-08-01T10:01:37.485Z,1.98
2022-08-01T10:04:12.236Z,1.80
2022-08-01T10:06:43.685Z,1.80
2022-08-01T10:09:13.675Z,1.80
2022-08-01T10:11:45.491Z,1.63
2022-08-01T10:14:17.663Z,2.00
2022-08-01T10:16:53.581Z,1.90
2022-08-01T10:19:25.789Z,1.70
2022-08-01T10:22:00.170Z,2.08
2022-08-01T10:24:33.338Z,1.60
2022-08-01T10:27:08.393Z,1.85
2022-08-01T10:29:59.779Z,1.83
2022-08-01T10:32:33.709Z,1.80
2022-08-01T10:35:06.292Z,1.90
2022-08-01T10:37:51.686Z,1.90
2022-08-01T10:40:31.032Z,1.77
2022-08-01T10:43:01.586Z,2.72
2022-08-01T10:45:30.824Z,2.17
2022-08-01T10:48:04.998Z,1.80
2022-08-01T10:50:37.000Z,1.80
2022-08-01T10:53:16.087Z,2.10
2022-08-01T10:55:53.567Z,2.03
2022-08-01T10:58:27.803Z,2.15
2022-08-01T11:01:25.858Z,2.20
2022-08-01T11:04:07.201Z,2.10
2022-08-01T11:06:48.391Z,2.08
2022-08-01T11:09:40.252Z,1.73
2022-08-01T11:12:13.159Z,1.70
2022-08-01T11:15:32.140Z,1.83
2022-08-01T11:18:02.437Z,1.80
2022-08-01T11:20:33.782Z,1.88
2022-08-01T11:23:36.376Z,1.73
2022-08-01T11:26:17.571Z,2.10
2022-08-01T11:29:11.178Z,3.30
2022-08-01T11:31:38.872Z,1.80
2022-08-01T11:34:08.062Z,1.85
2022-08-01T11:36:58.070Z,2.10
2022-08-01T11:39:25.325Z,2.10
2022-08-01T11:41:55.596Z,2.10
2022-08-01T11:44:28.339Z,2.05
2022-08-01T11:47:07.275Z,2.00
2022-08-01T11:49:51.568Z,1.80
2022-08-01T11:52:23.871Z,1.80
2022-08-01T11:54:56.126Z,2.10
2022-08-01T11:57:34.281Z,1.85
2022-08-01T12:00:08.477Z,2.00
2022-08-01T12:02:46.424Z,1.90
2022-08-01T12:05:17.377Z,2.40
2022-08-01T12:07:47.553Z,2.00
2022-08-01T12:10:17.393Z,1.92
2022-08-01T12:12:47.791Z,1.85
2022-08-01T12:15:16.674Z,1.88
2022-08-01T12:17:58.460Z,1.90
2022-08-01T12:20:31.234Z,1.80
2022-08-01T12:23:01.898Z,1.98
2022-08-01T12:25:30.512Z,1.98
2022-08-01T12:28:02.785Z,1.85
2022-08-01T12:30:35.995Z,2.00
2022-08-01T12:33:07.168Z,1.70
2022-08-01T12:35:37.329Z,1.90
2022-08-01T12:38:08.104Z,1.83
2022-08-01T12:40:42.149Z,1.80
2022-08-01T12:43:28.647Z,1.70
2022-08-01T12:46:00.368Z,1.80
2022-08-01T12:48:32.645Z,1.70
2022-08-01T12:51:03.277Z,1.90
2022-08-01T12:53:40.566Z,1.90
2022-08-01T12:56:11.359Z,1.88
2022-08-01T12:58:40.538Z,1.90
2022-08-01T13:01:10.667Z,2.00
2022-08-01T13:03:41.704Z,1.70
2022-08-01T13:06:15.620Z,1.80
2022-08-01T13:08:44.491Z,1.60
2022-08-01T13:11:16.721Z,1.70
2022-08-01T13:13:48.289Z,1.63
2022-08-01T13:16:26.028Z,1.70
2022-08-01T13:19:08.516Z,1.75
2022-08-01T13:21:53.839Z,1.98
2022-08-01T13:24:26.725Z,2.00
2022-08-01T13:26:59.818Z,1.77
2022-08-01T13:29:33.798Z,1.98
2022-08-01T13:32:02.467Z,1.70
2022-08-01T13:34:36.561Z,1.60
2022-08-01T13:37:05.151Z,1.83
2022-08-01T13:39:42.459Z,1.80
2022-08-01T13:42:12.069Z,1.52
2022-08-01T13:44:47.683Z,1.70
2022-08-01T13:47:16.272Z,1.63
2022-08-01T13:49:46.933Z,1.60
2022-08-01T13:52:15.380Z,1.63
2022-08-01T13:54:43.773Z,1.85
2022-08-01T13:57:12.284Z,1.73
2022-08-01T13:59:40.593Z,1.60
2022-08-01T14:02:09.622Z,1.60
2022-08-01T14:04:38.127Z,1.60
2022-08-01T14:07:11.805Z,1.45
2022-08-01T14:09:57.893Z,1.70
2022-08-01T14:12:31.374Z,1.98
2022-08-01T14:15:01.532Z,1.80
2022-08-01T14:17:29.813Z,1.73
2022-08-01T14:20:00.280Z,1.67
2022-08-01T14:22:30.088Z,1.50
2022-08-01T14:25:01.580Z,1.70
2022-08-01T14:27:32.028Z,1.73
2022-08-01T14:30:02.607Z,1.73
2022-08-01T14:32:32.355Z,1.70
2022-08-01T14:35:00.690Z,1.60
2022-08-01T14:37:34.732Z,1.88
2022-08-01T14:40:09.933Z,1.70
2022-08-01T14:42:38.541Z,1.75
2022-08-01T14:45:09.762Z,1.70
2022-08-01T14:47:38.733Z,1.70
2022-08-01T14:50:08.794Z,1.70
2022-08-01T14:52:39.898Z,1.70
2022-08-01T14:55:09.786Z,1.70
2022-08-01T14:57:38.346Z,1.92
2022-08-01T15:00:10.850Z,1.45
2022-08-01T15:02:39.170Z,1.92
2022-08-01T15:05:09.007Z,1.80
2022-08-01T15:07:51.555Z,2.05
2022-08-01T15:10:22.583Z,1.70
2022-08-01T15:12:51.021Z,1.70
2022-08-01T15:15:20.271Z,1.50
2022-08-01T15:17:48.647Z,1.53
2022-08-01T15:20:17.039Z,1.40
2022-08-01T15:22:48.635Z,1.70
2022-08-01T15:25:16.930Z,1.55
2022-08-01T15:27:45.276Z,1.42
2022-08-01T15:30:14.155Z,1.40
2022-08-01T15:32:42.408Z,1.27
2022-08-01T15:35:12.150Z,1.30
2022-08-01T15:37:43.117Z,1.30
2022-08-01T15:40:14.047Z,1.40
2022-08-01T15:42:42.401Z,1.48
2022-08-01T15:45:25.571Z,1.55
2022-08-01T15:47:59.789Z,1.67
2022-08-01T15:50:28.044Z,1.20
2022-08-01T15:52:56.378Z,1.40
2022-08-01T15:55:26.323Z,1.10
2022-08-01T15:57:54.734Z,1.50
2022-08-01T16:00:23.130Z,1.50
2022-08-01T16:02:51.495Z,1.35
2022-08-01T16:05:20.608Z,1.25
2022-08-01T16:07:59.217Z,1.48
2022-08-01T16:10:31.798Z,1.40
2022-08-01T16:13:06.918Z,1.33
2022-08-01T16:15:37.499Z,1.40
2022-08-01T16:18:07.032Z,1.37
2022-08-01T16:20:35.759Z,1.40
2022-08-01T16:23:04.098Z,1.40
2022-08-01T16:25:33.734Z,1.40
2022-08-01T16:28:02.150Z,1.50
2022-08-01T16:30:30.928Z,2.50
2022-08-01T16:33:07.266Z,1.60
2022-08-01T16:35:49.392Z,1.30
2022-08-01T16:38:21.027Z,1.30
2022-08-01T16:40:51.971Z,1.60
2022-08-01T16:43:21.090Z,1.30
2022-08-01T16:45:49.907Z,1.40
2022-08-01T16:48:18.529Z,1.30
2022-08-01T16:50:49.354Z,1.27
2022-08-01T16:53:18.941Z,1.20
2022-08-01T16:55:50.130Z,1.40
2022-08-01T16:58:27.919Z,1.30
2022-08-01T17:00:57.661Z,1.48
2022-08-01T17:03:46.804Z,1.87
2022-08-01T17:06:15.218Z,1.50
2022-08-01T17:08:47.034Z,1.30
2022-08-01T17:11:15.887Z,1.43
2022-08-01T17:13:45.891Z,1.23
2022-08-01T17:16:14.172Z,1.47
2022-08-01T17:18:42.497Z,1.33
2022-08-01T17:21:10.981Z,1.50
2022-08-01T17:23:39.937Z,1.50
2022-08-01T17:26:08.262Z,1.30
2022-08-01T17:28:36.789Z,1.40
2022-08-01T17:31:10.552Z,1.40
2022-08-01T17:33:45.437Z,1.60
2022-08-01T17:36:14.979Z,1.60
2022-08-01T17:38:43.393Z,1.30
2022-08-01T17:41:11.874Z,1.47
2022-08-01T17:43:40.285Z,1.40
2022-08-01T17:46:10.169Z,1.60
2022-08-01T17:48:38.514Z,1.57
2022-08-01T17:51:06.968Z,2.17
2022-08-01T17:53:35.326Z,1.60
2022-08-01T17:56:05.796Z,1.47
2022-08-01T17:58:50.668Z,2.17
2022-08-01T18:01:22.033Z,2.70
2022-08-01T18:03:55.764Z,1.73
2022-08-01T18:06:27.304Z,1.80
2022-08-01T18:08:59.694Z,1.77
2022-08-01T18:11:37.220Z,1.57
2022-08-01T18:14:06.523Z,1.53
2022-08-01T18:16:36.305Z,1.90
2022-08-01T18:19:06.573Z,1.60
2022-08-01T18:21:42.696Z,1.67
2022-08-01T18:24:11.305Z,1.60
2022-08-01T18:26:39.620Z,1.60
2022-08-01T18:29:07.909Z,1.83
2022-08-01T18:31:37.645Z,1.60
2022-08-01T18:34:06.052Z,1.60
2022-08-01T18:36:34.592Z,1.70
2022-08-01T18:39:06.380Z,1.57
2022-08-01T18:41:41.195Z,1.70
2022-08-01T18:44:09.760Z,1.60
2022-08-01T18:46:40.809Z,1.93
2022-08-01T18:49:11.370Z,1.90
2022-08-01T18:51:44.201Z,1.73
2022-08-01T18:54:13.844Z,1.70
2022-08-01T18:56:43.126Z,1.60
2022-08-01T18:59:11.973Z,1.90
2022-08-01T19:01:41.810Z,1.70
2022-08-01T19:04:10.532Z,1.90
2022-08-01T19:06:40.239Z,1.87
2022-08-01T19:09:09.257Z,1.80
2022-08-01T19:11:38.161Z,2.00
2022-08-01T19:14:06.666Z,1.80
2022-08-01T19:16:35.338Z,1.90
2022-08-01T19:19:09.409Z,1.90
2022-08-01T19:21:42.799Z,1.93
2022-08-01T19:24:22.617Z,1.83
2022-08-01T19:26:54.228Z,2.10
2022-08-01T19:29:33.032Z,2.10
2022-08-01T19:32:06.680Z,1.90
2022-08-01T19:34:44.050Z,1.93
2022-08-01T19:37:13.132Z,1.83
2022-08-01T19:39:45.481Z,2.00
2022-08-01T19:42:14.440Z,1.93
2022-08-01T19:44:43.797Z,2.10
2022-08-01T19:47:13.987Z,1.90
2022-08-01T19:49:43.865Z,2.00
2022-08-01T19:52:16.027Z,1.90
2022-08-01T19:54:45.938Z,1.80
2022-08-01T19:57:16.562Z,2.00
2022-08-01T19:59:48.699Z,1.57
2022-08-01T20:02:19.922Z,1.97
2022-08-01T20:04:50.296Z,2.00
2022-08-01T20:07:19.034Z,1.80
2022-08-01T20:09:50.669Z,1.90
2022-08-01T20:12:23.783Z,1.70
2022-08-01T20:14:53.806Z,1.73
2022-08-01T20:17:22.968Z,1.87
2022-08-01T20:19:52.986Z,1.90
2022-08-01T20:22:25.321Z,2.00
2022-08-01T20:24:58.689Z,1.90
2022-08-01T20:27:28.607Z,2.10
2022-08-01T20:30:00.199Z,2.00
2022-08-01T20:32:32.019Z,1.90
2022-08-01T20:35:03.181Z,2.10
2022-08-01T20:38:06.040Z,2.97
2022-08-01T20:40:26.940Z,1.70
2022-08-01T20:42:57.225Z,1.80
2022-08-01T20:45:27.462Z,2.00
2022-08-01T20:47:59.432Z,1.80
2022-08-01T20:50:53.304Z,1.90
2022-08-01T20:53:23.898Z,2.17
2022-08-01T20:56:00.286Z,2.00
2022-08-01T20:58:37.311Z,1.87
2022-08-01T21:01:09.452Z,2.13
2022-08-01T21:03:56.988Z,1.90
2022-08-01T21:06:34.802Z,1.90
2022-08-01T21:09:05.344Z,1.80
2022-08-01T21:11:41.241Z,1.90
2022-08-01T21:14:14.173Z,1.93
2022-08-01T21:16:47.417Z,1.80
2022-08-01T21:19:20.547Z,1.83
2022-08-01T21:21:53.491Z,1.60
2022-08-01T21:24:28.224Z,1.50
2022-08-01T21:26:58.664Z,1.77
2022-08-01T21:29:27.589Z,1.73
2022-08-01T21:32:10.144Z,1.50
2022-08-01T21:34:40.341Z,1.77
2022-08-01T21:37:11.131Z,1.60
2022-08-01T21:39:41.284Z,1.57
2022-08-01T21:42:10.225Z,1.80
2022-08-01T21:44:40.410Z,1.67
2022-08-01T21:47:11.768Z,1.70
2022-08-01T21:49:40.825Z,1.60
2022-08-01T21:52:15.368Z,1.50
2022-08-01T21:54:58.512Z,1.57
2022-08-01T21:57:42.231Z,1.40
2022-08-01T22:00:25.073Z,1.67
2022-08-01T22:03:06.065Z,1.60
2022-08-01T22:05:49.991Z,1.40
2022-08-01T22:08:25.468Z,1.60
2022-08-01T22:10:59.884Z,1.50
2022-08-01T22:13:28.569Z,1.40
2022-08-01T22:15:58.766Z,1.27
2022-08-01T22:18:28.455Z,1.50
2022-08-01T22:20:56.923Z,1.50
2022-08-01T22:23:26.559Z,1.30
2022-08-01T22:25:56.517Z,1.60
2022-08-01T22:28:25.126Z,1.60
2022-08-01T22:30:54.558Z,1.50
2022-08-01T22:33:23.029Z,1.40
2022-08-01T22:35:53.553Z,1.40
2022-08-01T22:38:23.485Z,1.33
2022-08-01T22:40:55.110Z,1.40
2022-08-01T22:43:27.176Z,1.40
2022-08-01T22:46:17.390Z,1.30
2022-08-01T22:48:50.276Z,1.40
2022-08-01T22:51:33.321Z,1.33
2022-08-01T22:54:06.325Z,1.50
2022-08-01T22:56:39.506Z,1.40
2022-08-01T22:59:12.324Z,1.30
2022-08-01T23:01:47.869Z,1.50
2022-08-01T23:04:24.266Z,1.40
2022-08-01T23:07:05.582Z,1.27
2022-08-01T23:09:52.712Z,1.50
2022-08-01T23:12:25.862Z,1.30
2022-08-01T23:14:55.506Z,1.40
2022-08-01T23:17:27.631Z,1.40
2022-08-01T23:19:59.234Z,1.53
2022-08-01T23:22:31.950Z,1.60
2022-08-01T23:25:06.636Z,1.53
2022-08-01T23:27:51.936Z,1.50
2022-08-01T23:30:28.499Z,1.60
2022-08-01T23:32:57.476Z,1.63
2022-08-01T23:35:26.881Z,1.93
2022-08-01T23:38:02.219Z,1.80
2022-08-01T23:40:32.324Z,1.70
2022-08-01T23:43:02.725Z,1.70
2022-08-01T23:46:02.879Z,1.50
2022-08-01T23:48:19.908Z,1.90
2022-08-01T23:50:48.366Z,1.70
2022-08-01T23:53:16.877Z,1.60
2022-08-01T23:55:45.270Z,1.53
2022-08-01T23:58:14.937Z,1.60
